sensor_id;sensor_type;location;lat;lon;timestamp;temperature;humidity
10885;DHT22;5495;53.252;10.390;2023-03-23T00:02:12;11.50;99.90
10885;DHT22;5495;53.252;10.390;2023-03-23T00:04:41;11.20;99.90
10885;DHT22;5495;53.252;10.390;2023-03-23T00:07:21;11.80;99.90
10885;DHT22;5495;53.252;10.390;2023-03-23T00:09:55;11.10;99.90
10885;DHT22;5495;53.252;10.390;2023-03-23T00:12:30;11.40;99.90
10885;DHT22;5495;53.252;10.390;2023-03-23T00:15:05;11.30;99.90
10885;DHT22;5495;53.252;10.390;2023-03-23T00:17:43;11.60;99.90
10885;DHT22;5495;53.252;10.390;2023-03-23T00:20:24;10.60;99.90
10885;DHT22;5495;53.252;10.390;2023-03-23T00:22:55;11.30;99.90
10885;DHT22;5495;53.252;10.390;2023-03-23T00:25:32;11.20;99.90
10885;DHT22;5495;53.252;10.390;2023-03-23T00:28:08;11.30;99.90
10885;DHT22;5495;53.252;10.390;2023-03-23T00:30:53;11.00;99.90
10885;DHT22;5495;53.252;10.390;2023-03-23T00:33:38;11.20;99.90
10885;DHT22;5495;53.252;10.390;2023-03-23T00:36:09;10.80;99.90
10885;DHT22;5495;53.252;10.390;2023-03-23T00:38:39;11.20;99.90
10885;DHT22;5495;53.252;10.390;2023-03-23T00:41:33;12.50;99.90
10885;DHT22;5495;53.252;10.390;2023-03-23T00:44:34;11.70;99.90
10885;DHT22;5495;53.252;10.390;2023-03-23T00:47:35;10.80;99.90
10885;DHT22;5495;53.252;10.390;2023-03-23T01:15:51;10.60;99.90
10885;DHT22;5495;53.252;10.390;2023-03-23T01:29:32;9.90;99.90
10885;DHT22;5495;53.252;10.390;2023-03-23T01:36:11;9.50;99.90
10885;DHT22;5495;53.252;10.390;2023-03-23T01:38:52;10.80;99.90
10885;DHT22;5495;53.252;10.390;2023-03-23T01:41:55;11.90;99.90
10885;DHT22;5495;53.252;10.390;2023-03-23T01:51:15;12.10;99.90
10885;DHT22;5495;53.252;10.390;2023-03-23T01:53:55;8.50;99.90
10885;DHT22;5495;53.252;10.390;2023-03-23T01:56:43;9.30;99.90
10885;DHT22;5495;53.252;10.390;2023-03-23T01:59:56;10.10;99.90
10885;DHT22;5495;53.252;10.390;2023-03-23T02:02:49;10.80;99.90
10885;DHT22;5495;53.252;10.390;2023-03-23T02:05:22;10.70;99.90
10885;DHT22;5495;53.252;10.390;2023-03-23T02:11:07;9.10;99.90
10885;DHT22;5495;53.252;10.390;2023-03-23T02:13:48;7.30;99.90
10885;DHT22;5495;53.252;10.390;2023-03-23T02:16:29;11.00;99.90
10885;DHT22;5495;53.252;10.390;2023-03-23T02:19:08;10.20;99.90
10885;DHT22;5495;53.252;10.390;2023-03-23T02:22:02;10.80;99.90
10885;DHT22;5495;53.252;10.390;2023-03-23T02:28:06;10.60;99.90
10885;DHT22;5495;53.252;10.390;2023-03-23T02:30:49;10.60;99.90
10885;DHT22;5495;53.252;10.390;2023-03-23T02:33:30;10.70;99.90
10885;DHT22;5495;53.252;10.390;2023-03-23T02:36:20;10.60;99.90
10885;DHT22;5495;53.252;10.390;2023-03-23T02:38:57;10.70;99.90
10885;DHT22;5495;53.252;10.390;2023-03-23T02:41:31;12.00;99.90
10885;DHT22;5495;53.252;10.390;2023-03-23T02:44:04;10.90;99.90
10885;DHT22;5495;53.252;10.390;2023-03-23T02:46:32;10.70;99.90
10885;DHT22;5495;53.252;10.390;2023-03-23T02:49:02;11.20;99.90
10885;DHT22;5495;53.252;10.390;2023-03-23T02:51:31;10.80;99.90
10885;DHT22;5495;53.252;10.390;2023-03-23T02:54:02;10.80;99.90
10885;DHT22;5495;53.252;10.390;2023-03-23T02:56:31;10.80;99.90
10885;DHT22;5495;53.252;10.390;2023-03-23T02:59:00;10.80;99.90
10885;DHT22;5495;53.252;10.390;2023-03-23T03:01:47;10.90;99.90
10885;DHT22;5495;53.252;10.390;2023-03-23T03:04:21;11.10;99.90
10885;DHT22;5495;53.252;10.390;2023-03-23T03:07:02;10.80;99.90
10885;DHT22;5495;53.252;10.390;2023-03-23T03:09:39;10.70;99.90
10885;DHT22;5495;53.252;10.390;2023-03-23T03:12:11;10.80;99.90
10885;DHT22;5495;53.252;10.390;2023-03-23T03:14:42;11.40;99.90
10885;DHT22;5495;53.252;10.390;2023-03-23T03:17:17;11.00;99.90
10885;DHT22;5495;53.252;10.390;2023-03-23T03:19:50;10.80;99.90
10885;DHT22;5495;53.252;10.390;2023-03-23T03:22:26;10.80;99.90
10885;DHT22;5495;53.252;10.390;2023-03-23T03:24:56;11.00;99.90
10885;DHT22;5495;53.252;10.390;2023-03-23T03:27:27;10.80;99.90
10885;DHT22;5495;53.252;10.390;2023-03-23T03:30:02;10.70;99.90
10885;DHT22;5495;53.252;10.390;2023-03-23T03:32:38;10.80;99.90
10885;DHT22;5495;53.252;10.390;2023-03-23T03:35:08;11.10;99.90
10885;DHT22;5495;53.252;10.390;2023-03-23T03:37:40;11.00;99.90
10885;DHT22;5495;53.252;10.390;2023-03-23T03:40:12;10.80;99.90
10885;DHT22;5495;53.252;10.390;2023-03-23T03:42:41;10.80;99.90
10885;DHT22;5495;53.252;10.390;2023-03-23T03:45:14;10.70;99.90
10885;DHT22;5495;53.252;10.390;2023-03-23T03:47:41;11.10;99.90
10885;DHT22;5495;53.252;10.390;2023-03-23T03:50:12;10.80;99.90
10885;DHT22;5495;53.252;10.390;2023-03-23T03:52:39;11.10;99.90
10885;DHT22;5495;53.252;10.390;2023-03-23T03:55:09;11.20;99.90
10885;DHT22;5495;53.252;10.390;2023-03-23T03:57:50;10.80;99.90
10885;DHT22;5495;53.252;10.390;2023-03-23T04:00:20;8.50;99.90
10885;DHT22;5495;53.252;10.390;2023-03-23T04:02:49;11.20;99.90
10885;DHT22;5495;53.252;10.390;2023-03-23T04:05:22;10.90;99.90
10885;DHT22;5495;53.252;10.390;2023-03-23T04:07:59;11.20;99.90
10885;DHT22;5495;53.252;10.390;2023-03-23T04:10:31;11.20;99.90
10885;DHT22;5495;53.252;10.390;2023-03-23T04:12:59;11.10;99.90
10885;DHT22;5495;53.252;10.390;2023-03-23T04:15:26;10.90;99.90
10885;DHT22;5495;53.252;10.390;2023-03-23T04:17:53;10.90;99.90
10885;DHT22;5495;53.252;10.390;2023-03-23T04:20:24;10.80;99.90
10885;DHT22;5495;53.252;10.390;2023-03-23T04:22:54;10.90;99.90
10885;DHT22;5495;53.252;10.390;2023-03-23T04:25:29;11.00;99.90
10885;DHT22;5495;53.252;10.390;2023-03-23T04:27:58;11.10;99.90
10885;DHT22;5495;53.252;10.390;2023-03-23T04:30:27;11.10;99.90
10885;DHT22;5495;53.252;10.390;2023-03-23T04:33:03;10.60;99.90
10885;DHT22;5495;53.252;10.390;2023-03-23T04:35:32;11.00;99.90
10885;DHT22;5495;53.252;10.390;2023-03-23T04:38:03;11.20;99.90
10885;DHT22;5495;53.252;10.390;2023-03-23T04:40:30;10.90;99.90
10885;DHT22;5495;53.252;10.390;2023-03-23T04:42:57;11.20;99.90
10885;DHT22;5495;53.252;10.390;2023-03-23T04:45:31;11.30;99.90
10885;DHT22;5495;53.252;10.390;2023-03-23T04:55:04;10.40;99.90
10885;DHT22;5495;53.252;10.390;2023-03-23T04:57:45;10.20;99.90
10885;DHT22;5495;53.252;10.390;2023-03-23T05:00:13;11.10;99.90
10885;DHT22;5495;53.252;10.390;2023-03-23T05:02:44;10.80;99.90
10885;DHT22;5495;53.252;10.390;2023-03-23T05:05:18;10.50;99.90
10885;DHT22;5495;53.252;10.390;2023-03-23T05:07:48;9.80;99.90
10885;DHT22;5495;53.252;10.390;2023-03-23T05:10:30;10.90;99.90
10885;DHT22;5495;53.252;10.390;2023-03-23T05:13:04;11.20;99.90
10885;DHT22;5495;53.252;10.390;2023-03-23T05:15:31;11.00;99.90
10885;DHT22;5495;53.252;10.390;2023-03-23T05:17:58;10.90;99.90
10885;DHT22;5495;53.252;10.390;2023-03-23T05:20:28;11.20;99.90
10885;DHT22;5495;53.252;10.390;2023-03-23T05:22:57;10.90;99.90
10885;DHT22;5495;53.252;10.390;2023-03-23T05:25:26;11.00;99.90
10885;DHT22;5495;53.252;10.390;2023-03-23T05:30:52;10.90;99.90
10885;DHT22;5495;53.252;10.390;2023-03-23T05:33:21;11.60;99.90
10885;DHT22;5495;53.252;10.390;2023-03-23T05:35:56;11.00;99.90
10885;DHT22;5495;53.252;10.390;2023-03-23T05:38:23;11.10;99.90
10885;DHT22;5495;53.252;10.390;2023-03-23T05:40:52;11.20;99.90
10885;DHT22;5495;53.252;10.390;2023-03-23T05:43:19;11.90;99.90
10885;DHT22;5495;53.252;10.390;2023-03-23T05:45:52;12.10;99.90
10885;DHT22;5495;53.252;10.390;2023-03-23T05:48:24;10.90;99.90
10885;DHT22;5495;53.252;10.390;2023-03-23T05:50:51;10.80;99.90
10885;DHT22;5495;53.252;10.390;2023-03-23T05:53:18;11.10;99.90
10885;DHT22;5495;53.252;10.390;2023-03-23T05:55:47;10.80;99.90
10885;DHT22;5495;53.252;10.390;2023-03-23T05:58:15;10.70;99.90
10885;DHT22;5495;53.252;10.390;2023-03-23T06:01:05;11.10;99.90
10885;DHT22;5495;53.252;10.390;2023-03-23T06:03:33;12.00;99.90
10885;DHT22;5495;53.252;10.390;2023-03-23T06:06:02;10.20;99.90
10885;DHT22;5495;53.252;10.390;2023-03-23T06:08:29;11.20;99.90
10885;DHT22;5495;53.252;10.390;2023-03-23T06:11:01;10.90;99.90
10885;DHT22;5495;53.252;10.390;2023-03-23T06:13:41;11.00;99.90
10885;DHT22;5495;53.252;10.390;2023-03-23T06:16:08;11.10;99.90
10885;DHT22;5495;53.252;10.390;2023-03-23T06:18:44;11.10;99.90
10885;DHT22;5495;53.252;10.390;2023-03-23T06:21:26;11.00;99.90
10885;DHT22;5495;53.252;10.390;2023-03-23T06:23:55;10.90;99.90
10885;DHT22;5495;53.252;10.390;2023-03-23T06:26:32;11.30;99.90
10885;DHT22;5495;53.252;10.390;2023-03-23T06:29:06;11.30;99.90
10885;DHT22;5495;53.252;10.390;2023-03-23T06:31:41;11.10;99.90
10885;DHT22;5495;53.252;10.390;2023-03-23T06:34:13;11.30;99.90
10885;DHT22;5495;53.252;10.390;2023-03-23T06:36:47;11.00;99.90
10885;DHT22;5495;53.252;10.390;2023-03-23T06:39:17;10.90;99.90
10885;DHT22;5495;53.252;10.390;2023-03-23T06:42:08;11.50;99.90
10885;DHT22;5495;53.252;10.390;2023-03-23T06:44:44;13.50;99.90
10885;DHT22;5495;53.252;10.390;2023-03-23T06:47:25;11.20;99.90
10885;DHT22;5495;53.252;10.390;2023-03-23T06:50:08;12.00;99.90
10885;DHT22;5495;53.252;10.390;2023-03-23T06:52:45;11.00;99.90
10885;DHT22;5495;53.252;10.390;2023-03-23T06:55:27;11.20;99.90
10885;DHT22;5495;53.252;10.390;2023-03-23T06:58:18;13.50;99.90
10885;DHT22;5495;53.252;10.390;2023-03-23T07:01:01;11.40;99.90
10885;DHT22;5495;53.252;10.390;2023-03-23T07:03:42;10.60;99.90
10885;DHT22;5495;53.252;10.390;2023-03-23T07:06:22;10.60;99.90
10885;DHT22;5495;53.252;10.390;2023-03-23T07:09:04;11.10;99.90
10885;DHT22;5495;53.252;10.390;2023-03-23T07:11:40;11.50;99.90
10885;DHT22;5495;53.252;10.390;2023-03-23T07:14:18;11.30;99.90
10885;DHT22;5495;53.252;10.390;2023-03-23T07:16:54;13.90;99.90
10885;DHT22;5495;53.252;10.390;2023-03-23T07:25:02;11.80;99.90
10885;DHT22;5495;53.252;10.390;2023-03-23T07:28:04;10.50;99.90
10885;DHT22;5495;53.252;10.390;2023-03-23T07:36:06;11.40;99.90
10885;DHT22;5495;53.252;10.390;2023-03-23T07:39:06;11.20;99.90
10885;DHT22;5495;53.252;10.390;2023-03-23T07:42:00;11.60;99.90
10885;DHT22;5495;53.252;10.390;2023-03-23T07:53:01;10.80;99.90
10885;DHT22;5495;53.252;10.390;2023-03-23T07:55:29;11.90;99.90
10885;DHT22;5495;53.252;10.390;2023-03-23T07:58:02;11.70;99.90
10885;DHT22;5495;53.252;10.390;2023-03-23T08:00:31;11.80;99.90
10885;DHT22;5495;53.252;10.390;2023-03-23T08:06:25;11.30;99.90
10885;DHT22;5495;53.252;10.390;2023-03-23T08:08:57;11.50;99.90
10885;DHT22;5495;53.252;10.390;2023-03-23T08:11:34;11.40;99.90
10885;DHT22;5495;53.252;10.390;2023-03-23T08:14:06;11.70;99.90
10885;DHT22;5495;53.252;10.390;2023-03-23T08:16:41;11.40;99.90
10885;DHT22;5495;53.252;10.390;2023-03-23T08:19:58;11.60;99.90
10885;DHT22;5495;53.252;10.390;2023-03-23T08:22:56;10.60;99.90
10885;DHT22;5495;53.252;10.390;2023-03-23T08:25:45;12.40;99.90
10885;DHT22;5495;53.252;10.390;2023-03-23T08:28:14;11.10;99.90
10885;DHT22;5495;53.252;10.390;2023-03-23T08:34:22;12.10;99.90
10885;DHT22;5495;53.252;10.390;2023-03-23T08:37:00;12.20;99.90
10885;DHT22;5495;53.252;10.390;2023-03-23T08:40:00;14.80;99.90
10885;DHT22;5495;53.252;10.390;2023-03-23T09:30:02;11.70;99.90
10885;DHT22;5495;53.252;10.390;2023-03-23T09:32:43;12.20;99.90
10885;DHT22;5495;53.252;10.390;2023-03-23T09:35:40;12.20;99.90
10885;DHT22;5495;53.252;10.390;2023-03-23T09:38:09;12.40;99.90
10885;DHT22;5495;53.252;10.390;2023-03-23T09:41:24;12.10;99.90
10885;DHT22;5495;53.252;10.390;2023-03-23T09:43:53;10.90;99.90
10885;DHT22;5495;53.252;10.390;2023-03-23T09:46:48;11.00;99.90
10885;DHT22;5495;53.252;10.390;2023-03-23T09:49:43;10.40;99.90
10885;DHT22;5495;53.252;10.390;2023-03-23T09:52:26;12.00;99.90
10885;DHT22;5495;53.252;10.390;2023-03-23T09:55:22;11.90;99.90
10885;DHT22;5495;53.252;10.390;2023-03-23T10:07:10;12.30;99.90
10885;DHT22;5495;53.252;10.390;2023-03-23T10:09:47;12.20;99.90
10885;DHT22;5495;53.252;10.390;2023-03-23T10:12:48;12.70;99.90
10885;DHT22;5495;53.252;10.390;2023-03-23T10:15:46;11.10;99.90
10885;DHT22;5495;53.252;10.390;2023-03-23T10:28:43;12.40;99.90
10885;DHT22;5495;53.252;10.390;2023-03-23T10:31:50;12.70;99.90
10885;DHT22;5495;53.252;10.390;2023-03-23T10:34:50;12.40;99.90
10885;DHT22;5495;53.252;10.390;2023-03-23T10:41:00;11.10;99.90
10885;DHT22;5495;53.252;10.390;2023-03-23T10:43:33;12.30;99.90
10885;DHT22;5495;53.252;10.390;2023-03-23T10:59:29;12.20;99.90
10885;DHT22;5495;53.252;10.390;2023-03-23T11:03:17;12.20;99.90
10885;DHT22;5495;53.252;10.390;2023-03-23T11:06:11;11.10;99.90
10885;DHT22;5495;53.252;10.390;2023-03-23T11:09:33;11.90;99.90
10885;DHT22;5495;53.252;10.390;2023-03-23T11:18:41;11.10;99.90
10885;DHT22;5495;53.252;10.390;2023-03-23T11:21:31;10.10;99.90
10885;DHT22;5495;53.252;10.390;2023-03-23T11:24:35;10.50;99.90
10885;DHT22;5495;53.252;10.390;2023-03-23T11:27:27;12.20;99.90
10885;DHT22;5495;53.252;10.390;2023-03-23T11:40:44;12.40;99.90
10885;DHT22;5495;53.252;10.390;2023-03-23T11:43:51;11.60;99.90
10885;DHT22;5495;53.252;10.390;2023-03-23T11:46:42;14.70;99.90
10885;DHT22;5495;53.252;10.390;2023-03-23T11:49:54;14.80;99.90
10885;DHT22;5495;53.252;10.390;2023-03-23T12:24:14;12.40;99.90
10885;DHT22;5495;53.252;10.390;2023-03-23T12:37:45;14.30;99.90
10885;DHT22;5495;53.252;10.390;2023-03-23T13:07:08;13.60;99.90
10885;DHT22;5495;53.252;10.390;2023-03-23T13:14:37;12.80;99.90
10885;DHT22;5495;53.252;10.390;2023-03-23T13:17:54;11.90;99.90
10885;DHT22;5495;53.252;10.390;2023-03-23T13:26:58;12.80;99.90
10885;DHT22;5495;53.252;10.390;2023-03-23T13:52:35;16.60;99.90
10885;DHT22;5495;53.252;10.390;2023-03-23T13:56:03;17.20;99.90
10885;DHT22;5495;53.252;10.390;2023-03-23T13:59:56;16.30;99.90
10885;DHT22;5495;53.252;10.390;2023-03-23T14:02:51;14.50;99.90
10885;DHT22;5495;53.252;10.390;2023-03-23T14:05:38;15.30;99.90
10885;DHT22;5495;53.252;10.390;2023-03-23T14:08:47;15.70;99.90
10885;DHT22;5495;53.252;10.390;2023-03-23T14:12:02;15.40;99.90
10885;DHT22;5495;53.252;10.390;2023-03-23T14:14:48;15.70;99.90
10885;DHT22;5495;53.252;10.390;2023-03-23T14:20:48;14.80;99.90
10885;DHT22;5495;53.252;10.390;2023-03-23T14:24:32;15.50;99.90
10885;DHT22;5495;53.252;10.390;2023-03-23T14:27:28;14.70;99.90
10885;DHT22;5495;53.252;10.390;2023-03-23T14:30:21;16.20;99.90
10885;DHT22;5495;53.252;10.390;2023-03-23T14:33:31;13.60;99.90
10885;DHT22;5495;53.252;10.390;2023-03-23T15:07:42;14.30;99.90
10885;DHT22;5495;53.252;10.390;2023-03-23T15:14:30;14.10;99.90
10885;DHT22;5495;53.252;10.390;2023-03-23T15:17:27;14.40;99.90
10885;DHT22;5495;53.252;10.390;2023-03-23T15:37:24;13.30;99.90
10885;DHT22;5495;53.252;10.390;2023-03-23T15:39:47;14.10;99.90
10885;DHT22;5495;53.252;10.390;2023-03-23T17:52:49;12.60;99.90
10885;DHT22;5495;53.252;10.390;2023-03-23T17:55:37;10.00;99.90
10885;DHT22;5495;53.252;10.390;2023-03-23T17:58:56;9.70;99.90
10885;DHT22;5495;53.252;10.390;2023-03-23T18:11:17;8.10;99.90
10885;DHT22;5495;53.252;10.390;2023-03-23T18:48:49;9.80;99.90
10885;DHT22;5495;53.252;10.390;2023-03-23T18:57:42;10.20;99.90
10885;DHT22;5495;53.252;10.390;2023-03-23T19:29:01;9.50;99.90
10885;DHT22;5495;53.252;10.390;2023-03-23T19:39:11;9.90;99.90
10885;DHT22;5495;53.252;10.390;2023-03-23T19:43:48;10.80;99.90
10885;DHT22;5495;53.252;10.390;2023-03-23T19:47:08;11.70;99.90
10885;DHT22;5495;53.252;10.390;2023-03-23T20:08:33;11.60;99.90
10885;DHT22;5495;53.252;10.390;2023-03-23T20:12:01;10.90;99.90
10885;DHT22;5495;53.252;10.390;2023-03-23T20:15:25;9.50;99.90
10885;DHT22;5495;53.252;10.390;2023-03-23T20:18:07;11.00;99.90
10885;DHT22;5495;53.252;10.390;2023-03-23T20:21:41;9.50;99.90
10885;DHT22;5495;53.252;10.390;2023-03-23T20:24:26;8.70;99.90
10885;DHT22;5495;53.252;10.390;2023-03-23T20:30:31;10.40;99.90
10885;DHT22;5495;53.252;10.390;2023-03-23T20:33:21;9.50;99.90
10885;DHT22;5495;53.252;10.390;2023-03-23T20:36:19;8.00;99.90
10885;DHT22;5495;53.252;10.390;2023-03-23T20:52:38;9.60;99.90
10885;DHT22;5495;53.252;10.390;2023-03-23T21:04:34;8.40;99.90
10885;DHT22;5495;53.252;10.390;2023-03-23T21:07:09;11.40;99.90
10885;DHT22;5495;53.252;10.390;2023-03-23T21:09:42;9.70;99.90
10885;DHT22;5495;53.252;10.390;2023-03-23T21:17:47;9.20;99.90
10885;DHT22;5495;53.252;10.390;2023-03-23T21:30:33;9.60;99.90
10885;DHT22;5495;53.252;10.390;2023-03-23T21:33:32;9.00;99.90
10885;DHT22;5495;53.252;10.390;2023-03-23T21:36:50;8.50;99.90
10885;DHT22;5495;53.252;10.390;2023-03-23T21:39:50;11.70;99.90
10885;DHT22;5495;53.252;10.390;2023-03-23T22:00:42;10.20;99.90
10885;DHT22;5495;53.252;10.390;2023-03-23T22:09:40;10.20;99.90
10885;DHT22;5495;53.252;10.390;2023-03-23T22:12:23;9.30;99.90
10885;DHT22;5495;53.252;10.390;2023-03-23T22:27:28;9.90;99.90
10885;DHT22;5495;53.252;10.390;2023-03-23T22:30:27;11.30;99.90
10885;DHT22;5495;53.252;10.390;2023-03-23T22:36:26;11.50;99.90
10885;DHT22;5495;53.252;10.390;2023-03-23T22:42:28;9.70;99.90
10885;DHT22;5495;53.252;10.390;2023-03-23T22:45:51;13.00;99.90
10885;DHT22;5495;53.252;10.390;2023-03-23T22:48:29;9.50;99.90
10885;DHT22;5495;53.252;10.390;2023-03-23T22:51:00;11.30;99.90
10885;DHT22;5495;53.252;10.390;2023-03-23T22:53:54;9.20;99.90
10885;DHT22;5495;53.252;10.390;2023-03-23T22:56:24;10.80;99.90
10885;DHT22;5495;53.252;10.390;2023-03-23T23:02:27;9.60;99.90
10885;DHT22;5495;53.252;10.390;2023-03-23T23:05:08;10.70;99.90
10885;DHT22;5495;53.252;10.390;2023-03-23T23:07:56;9.50;99.90
10885;DHT22;5495;53.252;10.390;2023-03-23T23:10:44;10.80;99.90
10885;DHT22;5495;53.252;10.390;2023-03-23T23:13:47;10.70;99.90
10885;DHT22;5495;53.252;10.390;2023-03-23T23:16:24;10.70;99.90
10885;DHT22;5495;53.252;10.390;2023-03-23T23:19:09;11.00;99.90
10885;DHT22;5495;53.252;10.390;2023-03-23T23:21:52;10.40;99.90
10885;DHT22;5495;53.252;10.390;2023-03-23T23:24:50;11.10;99.90
10885;DHT22;5495;53.252;10.390;2023-03-23T23:27:38;9.60;99.90
10885;DHT22;5495;53.252;10.390;2023-03-23T23:30:08;11.00;99.90
10885;DHT22;5495;53.252;10.390;2023-03-23T23:32:53;11.70;99.90
10885;DHT22;5495;53.252;10.390;2023-03-23T23:35:35;11.30;99.90
10885;DHT22;5495;53.252;10.390;2023-03-23T23:40:54;10.30;99.90
10885;DHT22;5495;53.252;10.390;2023-03-23T23:43:49;11.10;99.90
10885;DHT22;5495;53.252;10.390;2023-03-23T23:46:18;10.90;99.90
10885;DHT22;5495;53.252;10.390;2023-03-23T23:49:03;10.90;99.90
10885;DHT22;5495;53.252;10.390;2023-03-23T23:51:42;11.10;99.90
10885;DHT22;5495;53.252;10.390;2023-03-23T23:57:00;10.80;99.90
10885;DHT22;5495;53.252;10.390;2023-03-23T23:59:46;11.10;99.90
